Time;durP1;ratioP1;P1;durP2;ratioP2;P2;SDS_P1;SDS_P2;PMS_P1;PMS_P2;Temp;Humidity;BMP_temperature;BMP_pressure;BME280_temperature;BME280_humidity;BME280_pressure;Samples;Min_cycle;Max_cycle;Signal;HPM_P1;HPM_P2
2021/05/01 00:01:05;;;;;;;2.90;1.30;;;11.90;50.70;;;;;;5070817;28;20074;-70
2021/05/01 00:03:31;;;;;;;1.65;1.40;;;11.90;50.70;;;;;;5070765;28;20056;-70
2021/05/01 00:05:58;;;;;;;1.40;1.30;;;11.80;50.70;;;;;;5070712;28;20063;-72
2021/05/01 00:08:28;;;;;;;1.58;1.40;;;11.80;50.70;;;;;;5070787;28;20445;-70
2021/05/01 00:11:00;;;;;;;1.30;1.20;;;11.80;50.70;;;;;;5070828;28;20048;-71
2021/05/01 00:13:26;;;;;;;1.88;1.35;;;11.80;50.70;;;;;;5052531;28;20543;-70
2021/05/01 00:15:52;;;;;;;1.65;1.35;;;11.80;50.60;;;;;;5070997;28;20433;-71
2021/05/01 00:18:19;;;;;;;1.40;1.30;;;11.70;50.50;;;;;;5071013;28;20074;-70
2021/05/01 00:20:45;;;;;;;1.33;1.20;;;11.70;50.50;;;;;;5052729;28;20040;-70
2021/05/01 00:23:11;;;;;;;1.30;1.20;;;11.70;50.60;;;;;;5070999;28;20066;-70
2021/05/01 00:25:37;;;;;;;1.38;1.27;;;11.70;50.50;;;;;;5070226;28;20056;-70
2021/05/01 00:28:03;;;;;;;1.35;1.25;;;11.60;50.50;;;;;;5071032;28;20028;-70
2021/05/01 00:30:30;;;;;;;1.30;1.20;;;11.60;50.60;;;;;;5070293;28;20048;-70
2021/05/01 00:32:57;;;;;;;1.50;1.40;;;11.60;50.50;;;;;;5054820;28;20068;-70
2021/05/01 00:35:24;;;;;;;3.28;1.77;;;11.60;50.60;;;;;;5074808;28;20025;-70
2021/05/01 00:37:50;;;;;;;1.75;1.45;;;11.50;50.70;;;;;;5074050;28;20435;-71
2021/05/01 00:40:16;;;;;;;1.67;1.50;;;11.50;50.60;;;;;;5056577;28;20511;-71
2021/05/01 00:42:42;;;;;;;1.55;1.45;;;11.50;50.60;;;;;;5074247;28;20059;-70
2021/05/01 00:45:08;;;;;;;1.40;1.30;;;11.50;50.70;;;;;;5066370;28;20055;-71
2021/05/01 00:47:34;;;;;;;1.42;1.33;;;11.40;50.70;;;;;;5074012;28;20056;-70
2021/05/01 00:50:01;;;;;;;1.45;1.30;;;11.30;50.70;;;;;;5055428;28;20032;-70
2021/05/01 00:52:27;;;;;;;1.45;1.30;;;11.30;50.70;;;;;;5073994;28;20106;-70
2021/05/01 00:54:53;;;;;;;1.83;1.50;;;11.30;50.70;;;;;;5074051;28;20088;-71
2021/05/01 00:57:19;;;;;;;2.17;1.50;;;11.30;50.70;;;;;;5074645;28;20060;-71
2021/05/01 00:59:46;;;;;;;1.48;1.38;;;11.20;51.60;;;;;;5074013;28;20413;-70
2021/05/01 01:02:15;;;;;;;1.42;1.33;;;11.20;50.80;;;;;;5074453;28;20445;-70
2021/05/01 01:04:41;;;;;;;1.70;1.58;;;11.20;50.70;;;;;;5073788;28;20614;-70
2021/05/01 01:07:07;;;;;;;1.60;1.50;;;11.10;50.80;;;;;;5073741;28;20076;-70
2021/05/01 01:09:34;;;;;;;1.63;1.40;;;11.10;50.80;;;;;;5073931;28;20056;-70
2021/05/01 01:12:00;;;;;;;1.70;1.60;;;11.10;50.80;;;;;;5074091;28;20059;-70
2021/05/01 01:14:26;;;;;;;1.85;1.65;;;11.10;50.80;;;;;;5055608;28;20064;-70
2021/05/01 01:16:52;;;;;;;2.97;1.90;;;11.10;50.90;;;;;;5073727;28;20055;-70
2021/05/01 01:19:18;;;;;;;2.55;1.63;;;11.00;50.80;;;;;;5074001;28;20048;-70
2021/05/01 01:21:46;;;;;;;2.70;1.90;;;11.00;51.30;;;;;;5073025;28;20052;-70
2021/05/01 01:24:13;;;;;;;1.70;1.60;;;11.00;50.90;;;;;;5073378;28;20434;-71
2021/05/01 01:26:40;;;;;;;2.03;1.70;;;11.00;51.00;;;;;;5073246;28;20515;-70
2021/05/01 01:29:09;;;;;;;1.70;1.60;;;10.90;51.00;;;;;;5065404;28;20111;-70
2021/05/01 01:31:35;;;;;;;2.65;1.80;;;10.90;51.00;;;;;;5073579;28;20052;-70
2021/05/01 01:34:03;;;;;;;2.42;1.80;;;10.90;51.00;;;;;;5072759;28;20083;-70
2021/05/01 01:36:29;;;;;;;2.15;1.80;;;10.90;51.00;;;;;;5070213;28;20055;-70
2021/05/01 01:38:55;;;;;;;2.78;2.00;;;10.90;51.00;;;;;;5071361;28;20094;-70
2021/05/01 01:41:21;;;;;;;2.85;2.13;;;10.90;51.10;;;;;;5062318;28;20052;-71
2021/05/01 01:43:47;;;;;;;3.38;2.10;;;10.90;51.10;;;;;;5062060;28;20143;-70
2021/05/01 01:46:14;;;;;;;2.63;2.10;;;10.80;51.10;;;;;;5055450;28;20071;-70
2021/05/01 01:48:40;;;;;;;3.28;2.10;;;10.80;51.20;;;;;;5073189;28;20499;-70
2021/05/01 01:51:06;;;;;;;2.90;2.20;;;10.80;51.30;;;;;;5072933;28;20025;-70
2021/05/01 01:53:32;;;;;;;2.72;2.10;;;10.70;51.40;;;;;;5065266;28;20056;-70
2021/05/01 01:55:59;;;;;;;2.92;2.03;;;10.70;51.50;;;;;;5064025;28;20031;-70
2021/05/01 01:58:25;;;;;;;3.35;2.42;;;10.70;51.50;;;;;;5071396;28;20044;-70
2021/05/01 02:00:53;;;;;;;3.50;2.40;;;10.60;51.50;;;;;;5073121;28;20052;-70
2021/05/01 02:03:20;;;;;;;2.92;2.40;;;10.60;51.50;;;;;;5071807;28;20075;-70
2021/05/01 02:05:46;;;;;;;4.00;2.50;;;10.60;51.60;;;;;;5072532;28;20071;-70
2021/05/01 02:08:13;;;;;;;4.30;2.63;;;10.60;51.70;;;;;;5071385;28;20439;-70
2021/05/01 02:10:40;;;;;;;3.65;2.60;;;10.60;51.80;;;;;;5066324;28;20106;-70
2021/05/01 02:13:07;;;;;;;3.22;2.65;;;10.50;51.70;;;;;;5052768;28;20056;-71
2021/05/01 02:15:33;;;;;;;4.07;2.78;;;10.60;51.90;;;;;;5071320;28;20048;-70
2021/05/01 02:18:01;;;;;;;3.95;2.97;;;10.60;51.90;;;;;;5054520;28;20505;-70
2021/05/01 02:20:33;;;;;;;3.58;2.60;;;10.50;51.80;;;;;;5072329;28;20052;-70
2021/05/01 02:23:00;;;;;;;3.30;2.53;;;10.60;52.00;;;;;;5072767;28;20040;-70
2021/05/01 02:25:26;;;;;;;3.55;2.83;;;10.50;51.90;;;;;;5072611;28;20078;-70
2021/05/01 02:27:54;;;;;;;3.92;2.70;;;10.50;52.00;;;;;;5066617;28;20044;-70
2021/05/01 02:30:23;;;;;;;5.18;3.15;;;10.50;52.10;;;;;;5072103;28;20550;-70
2021/05/01 02:32:50;;;;;;;4.32;3.00;;;10.50;52.30;;;;;;5071703;28;20052;-70
2021/05/01 02:35:28;;;;;;;4.68;3.30;;;10.40;52.40;;;;;;5072260;28;20025;-71
2021/05/01 02:37:55;;;;;;;3.90;3.03;;;10.40;52.70;;;;;;5072115;28;20056;-71
2021/05/01 02:40:23;;;;;;;3.45;2.55;;;10.30;52.70;;;;;;5072179;28;20499;-70
2021/05/01 02:42:49;;;;;;;3.90;2.67;;;10.30;52.80;;;;;;5070222;28;20083;-71
2021/05/01 02:45:18;;;;;;;3.45;2.60;;;10.20;52.80;;;;;;5072485;28;20067;-70
2021/05/01 02:47:44;;;;;;;3.13;2.45;;;10.20;54.00;;;;;;5067786;28;20057;-71
2021/05/01 02:50:11;;;;;;;2.67;2.45;;;10.10;53.20;;;;;;5071877;28;20033;-70
2021/05/01 02:52:38;;;;;;;3.45;2.47;;;10.10;53.40;;;;;;5072113;28;20476;-70
2021/05/01 02:55:05;;;;;;;3.22;2.40;;;10.00;53.40;;;;;;5071781;28;20064;-70
2021/05/01 02:57:31;;;;;;;3.28;2.40;;;10.00;53.50;;;;;;5070359;28;20441;-71
2021/05/01 03:00:02;;;;;;;3.88;2.45;;;10.00;53.50;;;;;;5071551;28;20480;-70
2021/05/01 03:02:29;;;;;;;3.42;2.33;;;10.00;53.60;;;;;;5072113;28;20021;-70
2021/05/01 03:04:56;;;;;;;3.40;2.40;;;9.90;53.60;;;;;;5053147;28;20056;-70
2021/05/01 03:07:25;;;;;;;3.33;2.30;;;9.90;53.60;;;;;;5071715;28;20067;-70
2021/05/01 03:09:52;;;;;;;4.03;2.47;;;9.90;53.70;;;;;;5071272;28;20056;-70
2021/05/01 03:12:18;;;;;;;2.35;2.10;;;9.90;53.80;;;;;;5071674;28;20060;-70
2021/05/01 03:14:45;;;;;;;2.72;2.17;;;9.90;53.90;;;;;;5071490;28;20033;-70
2021/05/01 03:17:12;;;;;;;3.80;2.55;;;9.80;53.90;;;;;;5071160;28;20032;-70
2021/05/01 03:19:38;;;;;;;3.60;2.45;;;9.90;54.20;;;;;;5071590;28;20052;-70
2021/05/01 03:22:04;;;;;;;2.63;2.20;;;9.80;54.30;;;;;;5071480;28;20047;-70
2021/05/01 03:24:31;;;;;;;2.65;2.28;;;9.80;54.10;;;;;;5071430;28;20492;-70
2021/05/01 03:26:57;;;;;;;3.08;2.30;;;9.70;54.40;;;;;;5071068;28;20024;-70
2021/05/01 03:29:23;;;;;;;3.28;2.10;;;9.70;54.30;;;;;;5071670;28;20025;-70
2021/05/01 03:31:49;;;;;;;3.50;2.20;;;9.70;54.30;;;;;;5070791;28;20060;-70
2021/05/01 03:34:16;;;;;;;2.42;2.00;;;9.70;54.40;;;;;;5071305;28;20063;-70
2021/05/01 03:36:42;;;;;;;2.55;2.10;;;9.70;54.50;;;;;;5071151;28;20055;-70
2021/05/01 03:39:08;;;;;;;2.88;2.00;;;9.70;54.60;;;;;;5069637;28;20055;-70
2021/05/01 03:41:34;;;;;;;2.97;1.90;;;9.70;54.60;;;;;;5071127;28;20056;-70
2021/05/01 03:44:00;;;;;;;2.38;1.80;;;9.70;54.60;;;;;;5069749;28;20020;-70
2021/05/01 03:46:27;;;;;;;2.80;1.98;;;9.60;54.50;;;;;;5070911;28;20063;-70
2021/05/01 03:48:54;;;;;;;2.67;1.90;;;9.70;54.60;;;;;;5070809;28;20048;-70
2021/05/01 03:51:20;;;;;;;2.63;1.80;;;9.70;54.60;;;;;;5069489;28;20056;-70
2021/05/01 03:53:46;;;;;;;1.95;1.75;;;9.70;54.60;;;;;;5070780;28;20064;-70
2021/05/01 03:56:12;;;;;;;2.17;1.98;;;9.70;54.60;;;;;;5070818;28;20052;-70
2021/05/01 03:58:38;;;;;;;2.20;1.90;;;9.70;54.60;;;;;;5071261;28;20085;-70
2021/05/01 04:01:04;;;;;;;2.70;1.90;;;9.60;54.50;;;;;;5070509;28;20056;-70
2021/05/01 04:03:30;;;;;;;2.75;1.88;;;9.60;54.50;;;;;;5071126;28;20558;-70
2021/05/01 04:05:56;;;;;;;2.10;1.90;;;9.60;54.50;;;;;;5070888;28;20527;-70
2021/05/01 04:08:22;;;;;;;1.83;1.73;;;9.60;54.60;;;;;;5070527;28;20056;-70
2021/05/01 04:10:48;;;;;;;2.40;1.85;;;9.60;54.70;;;;;;5070728;28;20048;-70
2021/05/01 04:13:14;;;;;;;2.10;1.90;;;9.60;54.80;;;;;;5070654;28;20397;-70
2021/05/01 04:15:40;;;;;;;2.15;1.80;;;9.60;54.90;;;;;;5070331;28;20093;-70
2021/05/01 04:18:12;;;;;;;2.35;1.85;;;9.50;54.90;;;;;;5070562;28;20059;-70
2021/05/01 04:20:38;;;;;;;3.13;2.00;;;9.50;55.80;;;;;;5071423;28;20436;-70
2021/05/01 04:23:04;;;;;;;2.60;1.77;;;9.50;54.90;;;;;;5069346;28;20526;-70
2021/05/01 04:25:30;;;;;;;1.70;1.60;;;9.50;55.00;;;;;;5071152;28;20047;-70
2021/05/01 04:27:56;;;;;;;2.17;1.85;;;9.40;55.10;;;;;;5070671;28;20063;-70
2021/05/01 04:30:23;;;;;;;3.03;1.90;;;9.40;55.20;;;;;;5070211;28;20496;-70
2021/05/01 04:32:50;;;;;;;2.50;2.00;;;9.40;55.60;;;;;;5070785;28;20063;-71
2021/05/01 04:35:16;;;;;;;1.90;1.70;;;9.40;55.60;;;;;;5070453;28;20086;-70
2021/05/01 04:37:42;;;;;;;1.92;1.73;;;9.40;55.40;;;;;;5070694;28;20056;-70
2021/05/01 04:40:09;;;;;;;2.10;1.80;;;9.40;55.40;;;;;;5068931;28;20060;-70
2021/05/01 04:42:37;;;;;;;1.70;1.60;;;9.30;55.40;;;;;;5070540;28;20445;-70
2021/05/01 04:45:04;;;;;;;1.60;1.50;;;9.40;55.50;;;;;;5070128;28;20059;-70
2021/05/01 04:47:30;;;;;;;1.83;1.60;;;9.40;55.40;;;;;;5070302;28;20461;-70
2021/05/01 04:49:56;;;;;;;2.17;1.60;;;9.40;55.40;;;;;;5070376;28;20071;-70
2021/05/01 04:52:22;;;;;;;2.13;1.80;;;9.40;55.50;;;;;;5070723;28;20064;-70
2021/05/01 04:54:48;;;;;;;2.95;2.00;;;9.40;55.60;;;;;;5070365;28;20063;-70
2021/05/01 04:57:14;;;;;;;2.35;1.63;;;9.40;55.60;;;;;;5070268;28;20443;-71
2021/05/01 04:59:40;;;;;;;1.73;1.63;;;9.30;55.50;;;;;;5069950;28;20052;-70
2021/05/01 05:02:07;;;;;;;2.17;1.60;;;9.30;55.50;;;;;;5070381;28;20056;-70
2021/05/01 05:04:33;;;;;;;1.80;1.70;;;9.30;55.50;;;;;;5069047;28;20059;-70
2021/05/01 05:06:59;;;;;;;2.63;1.70;;;9.30;55.60;;;;;;5070015;28;20067;-70
2021/05/01 05:09:25;;;;;;;1.85;1.58;;;9.30;55.70;;;;;;5070640;28;20056;-70
2021/05/01 05:11:51;;;;;;;2.92;1.80;;;9.30;55.70;;;;;;5070075;28;20056;-70
2021/05/01 05:14:17;;;;;;;2.08;1.80;;;9.30;55.70;;;;;;5068574;28;20481;-70
2021/05/01 05:16:43;;;;;;;1.77;1.60;;;9.30;55.70;;;;;;5052065;28;20064;-70
2021/05/01 05:19:09;;;;;;;1.92;1.63;;;9.30;55.70;;;;;;5071114;28;20040;-70
2021/05/01 05:21:35;;;;;;;2.05;1.77;;;9.30;55.80;;;;;;5073710;28;20461;-70
2021/05/01 05:24:04;;;;;;;1.70;1.60;;;9.20;55.60;;;;;;5073852;28;20417;-70
2021/05/01 05:26:31;;;;;;;1.80;1.70;;;9.30;55.70;;;;;;5074176;28;20024;-70
2021/05/01 05:28:57;;;;;;;2.42;1.80;;;9.30;55.80;;;;;;5073064;28;20504;-70
2021/05/01 05:31:23;;;;;;;1.73;1.60;;;9.30;55.80;;;;;;5073409;28;20449;-71
2021/05/01 05:33:49;;;;;;;1.80;1.70;;;9.30;55.70;;;;;;5073199;28;21903;-70
2021/05/01 05:36:15;;;;;;;2.13;1.90;;;9.30;55.70;;;;;;5073832;28;20056;-70
2021/05/01 05:38:41;;;;;;;1.98;1.63;;;9.30;55.80;;;;;;5073328;28;20050;-70
2021/05/01 05:41:07;;;;;;;1.50;1.40;;;9.30;55.80;;;;;;5073490;28;20072;-70
2021/05/01 05:43:34;;;;;;;1.95;1.70;;;9.30;55.80;;;;;;5073214;28;20091;-70
2021/05/01 05:46:11;;;;;;;1.50;1.40;;;9.30;55.80;;;;;;5054856;28;20068;-70
2021/05/01 05:48:38;;;;;;;1.83;1.60;;;9.30;55.80;;;;;;5073470;28;20051;-71
2021/05/01 05:51:05;;;;;;;1.88;1.67;;;9.30;55.80;;;;;;5072969;28;20067;-71
2021/05/01 05:53:31;;;;;;;1.65;1.55;;;9.30;55.90;;;;;;5073420;28;20472;-70
2021/05/01 05:55:57;;;;;;;1.70;1.60;;;9.30;55.80;;;;;;5072963;28;20020;-70
2021/05/01 05:58:24;;;;;;;2.00;1.63;;;9.40;55.90;;;;;;5072585;28;20064;-71
2021/05/01 06:00:50;;;;;;;2.03;1.60;;;9.40;55.90;;;;;;5071802;28;20175;-71
2021/05/01 06:03:18;;;;;;;2.72;1.77;;;9.40;55.90;;;;;;5072052;28;20063;-71
2021/05/01 06:05:50;;;;;;;1.88;1.70;;;9.50;56.00;;;;;;5053719;28;20068;-70
2021/05/01 06:08:17;;;;;;;2.10;1.60;;;9.50;55.90;;;;;;5070760;28;20052;-70
2021/05/01 06:10:44;;;;;;;1.95;1.73;;;9.50;56.90;;;;;;5052167;28;20484;-70
2021/05/01 06:13:13;;;;;;;1.98;1.70;;;9.60;55.80;;;;;;5053334;28;20063;-70
2021/05/01 06:15:40;;;;;;;1.83;1.60;;;9.60;55.90;;;;;;5072752;28;20460;-71
2021/05/01 06:18:08;;;;;;;2.30;1.80;;;9.70;55.80;;;;;;5072292;28;20413;-70
2021/05/01 06:20:34;;;;;;;2.67;1.70;;;9.70;55.70;;;;;;5067975;28;20024;-70
2021/05/01 06:23:01;;;;;;;2.30;2.10;;;9.80;55.70;;;;;;5072298;28;20086;-70
2021/05/01 06:25:30;;;;;;;1.98;1.70;;;9.80;55.60;;;;;;5054668;28;20159;-70
2021/05/01 06:27:56;;;;;;;2.53;1.90;;;9.80;55.60;;;;;;5071269;28;20078;-71
2021/05/01 06:30:23;;;;;;;2.22;1.80;;;9.90;55.60;;;;;;5071882;28;20056;-70
2021/05/01 06:32:50;;;;;;;2.42;1.80;;;9.90;55.60;;;;;;5071680;28;20078;-70
2021/05/01 06:35:17;;;;;;;2.35;1.80;;;10.00;55.60;;;;;;5071404;28;20056;-70
2021/05/01 06:37:46;;;;;;;1.92;1.77;;;10.00;55.50;;;;;;5063766;28;20016;-70
2021/05/01 06:40:15;;;;;;;2.00;1.77;;;10.10;55.60;;;;;;5070569;28;20059;-70
2021/05/01 06:42:50;;;;;;;2.60;1.85;;;10.20;55.60;;;;;;5051663;28;20079;-69
2021/05/01 06:45:17;;;;;;;1.98;1.70;;;10.30;55.60;;;;;;5064407;28;20029;-70
2021/05/01 06:47:59;;;;;;;1.90;1.70;;;10.30;55.50;;;;;;5069647;28;20024;-70
2021/05/01 06:50:26;;;;;;;2.85;1.60;;;10.50;55.50;;;;;;5062187;28;20048;-71
2021/05/01 06:52:53;;;;;;;2.00;1.52;;;10.50;55.40;;;;;;5069917;28;20059;-71
2021/05/01 06:55:21;;;;;;;1.50;1.40;;;10.70;55.40;;;;;;5071937;28;20058;-71
2021/05/01 06:57:50;;;;;;;1.63;1.50;;;10.80;55.10;;;;;;5057388;28;20416;-71
2021/05/01 07:00:19;;;;;;;1.50;1.40;;;11.00;55.00;;;;;;5063656;28;20075;-71
2021/05/01 07:02:47;;;;;;;1.60;1.50;;;11.20;54.80;;;;;;5071270;28;20421;-71
2021/05/01 07:05:16;;;;;;;2.45;1.40;;;11.40;54.60;;;;;;5070100;28;20063;-71
2021/05/01 07:07:44;;;;;;;1.50;1.40;;;11.60;54.40;;;;;;5067028;28;20064;-72
2021/05/01 07:10:10;;;;;;;1.90;1.40;;;11.70;54.20;;;;;;5058529;28;20032;-71
2021/05/01 07:12:37;;;;;;;1.83;1.40;;;12.00;53.90;;;;;;5069591;28;20056;-70
2021/05/01 07:15:11;;;;;;;1.92;1.30;;;12.30;53.70;;;;;;5071207;28;20431;-70
2021/05/01 07:17:39;;;;;;;1.70;1.23;;;12.60;53.00;;;;;;5072277;28;20117;-72
2021/05/01 07:20:07;;;;;;;2.42;1.10;;;12.90;52.30;;;;;;5072061;28;20048;-72
2021/05/01 07:22:34;;;;;;;1.00;1.00;;;13.30;51.70;;;;;;5071989;28;20056;-71
2021/05/01 07:25:01;;;;;;;0.93;0.93;;;13.60;50.90;;;;;;5069965;28;20044;-73
2021/05/01 07:27:40;;;;;;;0.80;0.80;;;14.00;50.00;;;;;;5068998;28;20445;-71
2021/05/01 07:30:07;;;;;;;1.70;0.90;;;14.40;49.20;;;;;;5070921;28;20052;-70
2021/05/01 07:32:36;;;;;;;0.70;0.70;;;14.90;48.20;;;;;;5069919;28;20032;-70
2021/05/01 07:35:07;;;;;;;0.70;0.70;;;15.30;47.40;;;;;;5068637;28;20526;-70
2021/05/01 07:37:38;;;;;;;1.00;0.70;;;15.90;46.10;;;;;;5070448;28;20058;-71
2021/05/01 07:40:09;;;;;;;0.63;0.60;;;16.40;45.00;;;;;;5068313;28;20090;-71
2021/05/01 07:42:42;;;;;;;0.55;0.55;;;16.90;44.10;;;;;;5058736;28;20205;-68
2021/05/01 07:45:10;;;;;;;0.60;0.60;;;17.40;43.00;;;;;;5060032;28;20465;-70
2021/05/01 07:47:37;;;;;;;0.60;0.60;;;17.80;41.50;;;;;;5070722;28;20067;-69
2021/05/01 07:50:05;;;;;;;0.70;0.60;;;18.10;40.30;;;;;;5071098;28;20052;-70
2021/05/01 07:52:33;;;;;;;0.60;0.57;;;18.40;39.70;;;;;;5060263;28;20087;-71
2021/05/01 07:54:59;;;;;;;0.40;0.40;;;18.70;39.70;;;;;;5069642;28;20050;-70
2021/05/01 07:57:26;;;;;;;0.30;0.30;;;19.00;38.30;;;;;;5070493;28;20059;-69
2021/05/01 07:59:52;;;;;;;0.40;0.40;;;19.20;38.10;;;;;;5070368;28;20056;-69
2021/05/01 08:02:18;;;;;;;0.50;0.50;;;19.40;37.20;;;;;;5070287;28;20066;-70
2021/05/01 08:04:44;;;;;;;0.35;0.35;;;19.60;36.50;;;;;;5070463;28;20059;-71
2021/05/01 08:07:11;;;;;;;0.30;0.30;;;19.80;36.00;;;;;;5070454;28;20087;-71
2021/05/01 08:09:37;;;;;;;0.20;0.20;;;20.00;34.90;;;;;;5070558;28;20044;-70
2021/05/01 08:12:04;;;;;;;0.20;0.20;;;20.10;34.80;;;;;;5070722;28;20521;-71
2021/05/01 08:14:30;;;;;;;0.50;0.38;;;20.20;34.80;;;;;;5070538;28;20060;-72
2021/05/01 08:16:56;;;;;;;0.30;0.30;;;20.30;34.70;;;;;;5070512;28;20052;-70
2021/05/01 08:19:22;;;;;;;0.50;0.25;;;20.40;34.50;;;;;;5070676;28;20052;-74
2021/05/01 08:21:48;;;;;;;0.52;0.40;;;20.50;34.30;;;;;;5070194;28;20052;-74
2021/05/01 08:24:14;;;;;;;1.55;0.40;;;20.60;33.70;;;;;;5070449;28;20059;-73
2021/05/01 08:26:41;;;;;;;0.95;0.50;;;20.70;33.10;;;;;;5070309;28;20017;-70
2021/05/01 08:29:07;;;;;;;0.47;0.40;;;20.80;32.80;;;;;;5068434;28;20058;-70
2021/05/01 08:31:33;;;;;;;0.15;0.15;;;20.90;32.70;;;;;;5070380;28;20060;-71
2021/05/01 08:33:59;;;;;;;0.47;0.43;;;21.10;32.70;;;;;;5070435;28;20040;-72
2021/05/01 08:36:26;;;;;;;0.30;0.30;;;21.30;31.80;;;;;;5070179;28;20060;-71
2021/05/01 08:38:53;;;;;;;0.30;0.30;;;21.50;32.10;;;;;;5068040;28;20522;-70
2021/05/01 08:41:22;;;;;;;0.60;0.47;;;21.50;32.00;;;;;;5068405;28;20024;-70
2021/05/01 08:43:48;;;;;;;0.40;0.40;;;21.60;31.50;;;;;;5069703;28;20044;-70
2021/05/01 08:46:20;;;;;;;0.20;0.20;;;21.80;31.30;;;;;;5069561;28;20059;-71
2021/05/01 08:48:47;;;;;;;0.95;0.40;;;21.90;31.30;;;;;;5069765;28;20500;-74
2021/05/01 08:51:15;;;;;;;0.35;0.32;;;22.00;31.00;;;;;;5069957;28;20029;-75
2021/05/01 08:53:42;;;;;;;0.32;0.32;;;22.10;30.90;;;;;;5069684;28;20056;-76
2021/05/01 08:56:08;;;;;;;0.30;0.30;;;22.20;30.60;;;;;;5038526;28;20512;-77
2021/05/01 08:58:35;;;;;;;0.90;0.40;;;22.30;30.60;;;;;;5073703;28;20433;-79
2021/05/01 09:01:01;;;;;;;0.25;0.25;;;22.50;30.40;;;;;;5073705;28;20488;-74
2021/05/01 09:03:28;;;;;;;0.30;0.30;;;22.60;30.20;;;;;;5063029;28;20025;-72
2021/05/01 09:05:56;;;;;;;0.30;0.22;;;22.70;29.50;;;;;;5069986;28;20433;-72
2021/05/01 09:08:23;;;;;;;0.20;0.20;;;22.80;29.00;;;;;;5074055;28;20059;-74
2021/05/01 09:10:52;;;;;;;0.20;0.20;;;22.90;28.80;;;;;;5073918;28;20060;-75
2021/05/01 09:13:22;;;;;;;0.10;0.10;;;22.90;28.80;;;;;;5072227;28;20498;-77
2021/05/01 09:16:05;;;;;;;0.28;0.28;;;23.00;28.60;;;;;;5073749;28;20484;-72
2021/05/01 09:18:54;;;;;;;0.30;0.30;;;23.10;28.20;;;;;;5063298;28;20504;-74
2021/05/01 09:21:25;;;;;;;0.20;0.20;;;23.20;27.50;;;;;;5048665;28;20510;-73
2021/05/01 09:23:53;;;;;;;0.20;0.20;;;23.30;27.00;;;;;;5073123;28;20530;-73
2021/05/01 09:26:42;;;;;;;0.20;0.20;;;23.40;26.40;;;;;;5073596;28;20060;-73
2021/05/01 09:29:09;;;;;;;0.60;0.35;;;23.50;25.70;;;;;;5051322;28;20048;-74
2021/05/01 09:31:43;;;;;;;0.20;0.20;;;23.40;25.60;;;;;;5073628;28;20456;-72
2021/05/01 09:34:10;;;;;;;0.30;0.30;;;23.50;25.30;;;;;;5073388;28;20052;-73
2021/05/01 09:36:38;;;;;;;0.30;0.30;;;23.60;24.30;;;;;;5073358;28;20473;-72
2021/05/01 09:39:07;;;;;;;0.20;0.20;;;23.60;24.10;;;;;;5071830;28;20040;-73
2021/05/01 09:41:39;;;;;;;0.45;0.20;;;23.50;24.00;;;;;;5073132;28;20457;-73
2021/05/01 09:44:12;;;;;;;0.20;0.20;;;23.50;24.40;;;;;;5054790;28;20081;-72
2021/05/01 09:46:38;;;;;;;0.20;0.20;;;23.60;24.80;;;;;;5073308;28;20071;-73
2021/05/01 09:49:12;;;;;;;0.13;0.13;;;23.60;24.70;;;;;;5072954;28;20569;-73
2021/05/01 09:51:52;;;;;;;0.43;0.20;;;23.80;25.10;;;;;;5068231;28;20522;-72
2021/05/01 09:54:23;;;;;;;0.20;0.20;;;23.90;25.00;;;;;;5070312;28;20052;-72
2021/05/01 09:56:50;;;;;;;0.20;0.20;;;24.00;25.20;;;;;;5060286;28;20028;-72
2021/05/01 09:59:16;;;;;;;0.30;0.30;;;24.00;23.40;;;;;;5060538;28;20056;-69
2021/05/01 10:01:58;;;;;;;0.20;0.20;;;23.80;23.60;;;;;;5068540;28;20060;-71
2021/05/01 10:04:25;;;;;;;0.10;0.10;;;23.80;24.20;;;;;;5072784;28;20029;-73
2021/05/01 10:06:58;;;;;;;0.10;0.10;;;23.80;24.20;;;;;;5050783;28;20448;-73
2021/05/01 10:09:31;;;;;;;0.10;0.10;;;23.80;24.20;;;;;;5073303;28;20052;-74
2021/05/01 10:12:15;;;;;;;0.10;0.10;;;23.80;23.60;;;;;;5057501;28;20065;-73
2021/05/01 10:14:48;;;;;;;0.10;0.10;;;23.80;23.70;;;;;;5072811;28;20143;-72
2021/05/01 10:17:24;;;;;;;0.20;0.20;;;23.50;23.80;;;;;;5072483;28;20488;-73
2021/05/01 10:19:54;;;;;;;0.10;0.10;;;23.00;24.10;;;;;;5065041;28;20045;-73
2021/05/01 10:22:28;;;;;;;0.10;0.10;;;22.40;24.00;;;;;;5061952;28;20064;-73
2021/05/01 10:24:56;;;;;;;0.10;0.10;;;21.70;24.40;;;;;;5072377;28;20529;-72
2021/05/01 10:27:22;;;;;;;0.10;0.10;;;21.20;25.00;;;;;;5066019;28;20112;-71
2021/05/01 10:30:36;;;;;;;0.08;0.08;;;20.80;25.40;;;;;;5065060;28;20083;-71
2021/05/01 10:35:38;;;;;;;0.32;0.10;;;20.00;27.20;;;;;;5053971;28;20056;-73
2021/05/01 10:38:07;;;;;;;0.10;0.10;;;19.80;26.50;;;;;;5071894;28;20075;-72
2021/05/01 10:40:41;;;;;;;0.08;0.08;;;19.80;26.90;;;;;;5072107;28;20021;-73
2021/05/01 10:43:16;;;;;;;0.00;0.00;;;19.80;27.10;;;;;;5072111;28;20441;-72
2021/05/01 10:46:05;;;;;;;0.00;0.00;;;19.80;27.10;;;;;;5072090;28;20095;-71
2021/05/01 10:48:48;;;;;;;0.10;0.10;;;19.80;27.40;;;;;;5071697;28;20071;-72
2021/05/01 10:51:17;;;;;;;0.00;0.00;;;19.90;27.50;;;;;;5071862;28;20674;-72
2021/05/01 10:53:44;;;;;;;0.35;0.20;;;19.90;27.50;;;;;;5070611;28;20028;-72
2021/05/01 10:56:11;;;;;;;0.20;0.10;;;19.70;26.90;;;;;;5063602;28;20056;-72
2021/05/01 10:58:42;;;;;;;0.10;0.10;;;19.30;26.50;;;;;;5059001;28;20052;-71
2021/05/01 11:01:09;;;;;;;;;;;19.00;26.80;;;;;;5072384;28;20055;-72
2021/05/01 11:03:47;;;;;;;0.10;0.10;;;18.90;27.40;;;;;;5071991;28;20369;-73
2021/05/01 11:06:21;;;;;;;0.10;0.10;;;19.00;27.50;;;;;;5069981;28;20071;-72
2021/05/01 11:08:52;;;;;;;0.20;0.20;;;19.20;27.00;;;;;;5065632;28;20063;-70
2021/05/01 11:11:25;;;;;;;0.15;0.15;;;19.30;26.90;;;;;;5068879;28;20044;-69
2021/05/01 11:13:53;;;;;;;0.10;0.10;;;19.20;26.50;;;;;;5071340;28;20067;-70
2021/05/01 11:16:25;;;;;;;0.00;0.00;;;18.90;26.70;;;;;;5070166;28;20060;-69
2021/05/01 11:18:52;;;;;;;0.10;0.10;;;18.50;27.10;;;;;;5069186;28;20021;-66
2021/05/01 11:21:22;;;;;;;0.10;0.00;;;18.40;27.50;;;;;;5070719;28;20074;-69
2021/05/01 11:23:49;;;;;;;0.10;0.10;;;18.40;27.70;;;;;;5070118;28;20425;-69
2021/05/01 11:26:15;;;;;;;0.00;0.00;;;18.50;27.60;;;;;;5068284;28;21489;-71
2021/05/01 11:28:41;;;;;;;0.03;0.03;;;18.60;27.50;;;;;;5063918;28;20059;-71
2021/05/01 11:31:10;;;;;;;0.00;0.00;;;18.70;27.20;;;;;;5052198;28;20032;-71
2021/05/01 11:33:39;;;;;;;0.00;0.00;;;18.90;27.70;;;;;;5067410;28;20448;-69
2021/05/01 11:36:08;;;;;;;0.28;0.13;;;19.00;27.40;;;;;;5069908;28;20516;-69
2021/05/01 11:38:38;;;;;;;0.05;0.05;;;18.90;27.40;;;;;;5070516;28;20056;-70
2021/05/01 11:41:12;;;;;;;0.10;0.10;;;18.60;27.00;;;;;;5070270;28;20060;-69
2021/05/01 11:43:40;;;;;;;0.05;0.05;;;18.20;27.30;;;;;;5062949;28;20048;-70
2021/05/01 11:46:27;;;;;;;0.10;0.10;;;18.10;28.00;;;;;;5068715;28;20060;-70
2021/05/01 11:49:09;;;;;;;0.00;0.00;;;18.10;28.10;;;;;;5072024;28;20048;-69
2021/05/01 11:52:09;;;;;;;0.10;0.10;;;18.10;28.20;;;;;;5071642;28;20401;-69
2021/05/01 11:54:44;;;;;;;0.00;0.00;;;18.00;28.50;;;;;;5066493;28;20722;-69
2021/05/01 11:57:47;;;;;;;0.00;0.00;;;17.80;28.70;;;;;;5052936;28;20066;-69
2021/05/01 12:00:30;;;;;;;0.13;0.10;;;17.50;28.70;;;;;;5059378;28;20405;-70
2021/05/01 12:02:57;;;;;;;0.10;0.10;;;17.30;28.90;;;;;;5070807;28;20064;-69
2021/05/01 12:05:43;;;;;;;0.00;0.00;;;17.30;29.40;;;;;;5070869;28;20028;-69
2021/05/01 12:08:20;;;;;;;0.10;0.10;;;17.40;29.50;;;;;;5051908;28;20538;-69
2021/05/01 12:10:51;;;;;;;0.10;0.10;;;17.40;29.10;;;;;;5070699;28;20496;-69
2021/05/01 12:13:30;;;;;;;0.05;0.05;;;17.40;29.00;;;;;;5069763;28;20055;-69
2021/05/01 12:15:59;;;;;;;0.10;0.10;;;17.30;29.00;;;;;;5069556;28;20066;-70
2021/05/01 12:18:50;;;;;;;0.10;0.10;;;17.30;29.10;;;;;;5069730;28;20052;-69
2021/05/01 12:21:27;;;;;;;0.00;0.00;;;17.20;29.30;;;;;;5053000;28;20052;-70
2021/05/01 12:23:59;;;;;;;0.10;0.10;;;17.30;29.30;;;;;;5067707;28;20058;-69
2021/05/01 12:26:35;;;;;;;0.08;0.08;;;17.40;29.30;;;;;;5069609;28;20094;-70
2021/05/01 12:29:23;;;;;;;0.45;0.10;;;17.50;29.50;;;;;;5053498;28;20056;-70
2021/05/01 12:31:58;;;;;;;0.80;0.10;;;17.70;29.30;;;;;;5072605;28;20526;-70
2021/05/01 12:34:43;;;;;;;0.10;0.10;;;17.80;29.00;;;;;;5055576;28;20496;-70
2021/05/01 12:37:11;;;;;;;0.10;0.10;;;17.80;28.60;;;;;;5072020;28;20143;-70
2021/05/01 12:39:38;;;;;;;0.20;0.10;;;17.70;28.20;;;;;;5072416;28;20054;-70
2021/05/01 12:42:25;;;;;;;0.03;0.03;;;17.60;28.50;;;;;;5055335;28;20056;-70
2021/05/01 12:44:51;;;;;;;0.10;0.10;;;17.60;28.70;;;;;;5073076;28;20048;-70
2021/05/01 12:47:38;;;;;;;0.10;0.10;;;17.70;28.90;;;;;;5073658;28;20060;-69
2021/05/01 12:50:22;;;;;;;0.10;0.10;;;17.80;28.70;;;;;;5055770;28;20072;-70
2021/05/01 12:52:49;;;;;;;0.13;0.10;;;17.70;28.40;;;;;;5072912;28;20056;-70
2021/05/01 12:55:16;;;;;;;0.20;0.20;;;17.70;28.60;;;;;;5072881;28;20067;-70
2021/05/01 12:57:43;;;;;;;0.13;0.13;;;17.60;28.30;;;;;;5072929;28;20077;-70
2021/05/01 13:00:29;;;;;;;0.10;0.10;;;17.60;28.10;;;;;;5075022;28;20075;-69
2021/05/01 13:03:04;;;;;;;0.10;0.10;;;17.50;28.00;;;;;;5074910;28;20571;-70